createdAt,value
2022-09-14T00:01:08.200Z,-1801.28
2022-09-14T00:06:16.780Z,-2579.06
2022-09-14T00:11:23.459Z,-504.63
2022-09-14T00:16:28.995Z,-504.63
2022-09-14T00:21:33.792Z,-2319.81
2022-09-14T00:26:39.081Z,-2579.06
2022-09-14T00:31:42.889Z,-3875.00
2022-09-14T00:36:48.664Z,-2838.28
2022-09-14T00:41:53.737Z,-3097.47
2022-09-14T00:46:59.834Z,-5429.56
2022-09-14T00:52:08.985Z,-6465.59
2022-09-14T00:57:14.341Z,-7242.44
2022-09-14T01:02:19.593Z,-8277.97
2022-09-14T01:07:34.232Z,-9054.47
2022-09-14T01:12:49.595Z,-9313.25
2022-09-14T01:18:02.003Z,-10089.50
2022-09-14T01:23:14.338Z,-9572.00
2022-09-14T01:28:24.956Z,-9313.25
2022-09-14T01:33:34.382Z,-9054.47
2022-09-14T01:38:41.925Z,-9313.25
2022-09-14T01:43:54.085Z,-9313.25
2022-09-14T01:49:04.326Z,-8536.81
2022-09-14T01:54:14.263Z,-7760.25
2022-09-14T01:59:24.336Z,-7760.25
2022-09-14T02:04:32.858Z,-8019.13
2022-09-14T02:09:36.343Z,-8795.66
2022-09-14T02:14:41.193Z,-8277.97
2022-09-14T02:19:49.553Z,-8277.97
2022-09-14T02:24:53.072Z,-8795.66
2022-09-14T02:29:58.474Z,-6983.50
2022-09-14T02:35:12.465Z,-8019.13
2022-09-14T02:40:25.174Z,-10606.94
2022-09-14T02:45:36.040Z,-10348.22
2022-09-14T02:50:49.354Z,-11641.56
2022-09-14T02:55:56.884Z,-12417.34
2022-09-14T03:01:01.805Z,-13192.97
2022-09-14T03:06:05.890Z,-14226.91
2022-09-14T03:11:09.412Z,-15262.09
2022-09-14T03:16:15.985Z,-15262.09
2022-09-14T03:21:19.591Z,-15262.09
2022-09-14T03:26:24.700Z,-15262.09
2022-09-14T03:31:29.612Z,-15262.09
2022-09-14T03:36:33.465Z,-15262.09
2022-09-14T03:41:36.833Z,-15262.09
2022-09-14T03:46:41.736Z,-15262.09
2022-09-14T03:51:45.154Z,-15262.09
2022-09-14T03:56:48.544Z,-15262.09
2022-09-14T04:01:53.345Z,-15262.09
2022-09-14T04:06:56.864Z,-15262.09
2022-09-14T04:12:00.294Z,-15262.09
2022-09-14T04:17:05.660Z,-15262.09
2022-09-14T04:22:09.709Z,-15262.09
2022-09-14T04:27:13.092Z,-15262.09
2022-09-14T04:32:18.304Z,-15262.09
2022-09-14T04:37:21.800Z,-15262.09
2022-09-14T04:42:25.289Z,-15262.09
2022-09-14T04:47:31.100Z,-15262.09
2022-09-14T04:52:34.548Z,-15262.09
2022-09-14T04:57:37.986Z,-15262.09
2022-09-14T05:02:43.233Z,-15262.09
2022-09-14T05:07:46.645Z,-15262.09
2022-09-14T05:12:50.024Z,-15262.09
2022-09-14T05:17:54.853Z,-15262.09
2022-09-14T05:22:58.462Z,-15262.09
2022-09-14T05:28:01.985Z,-15262.09
2022-09-14T05:33:06.769Z,-15262.09
2022-09-14T05:38:10.191Z,-15262.09
2022-09-14T05:43:13.612Z,-15262.09
2022-09-14T05:48:18.767Z,-15262.09
2022-09-14T05:53:22.143Z,-15262.09
2022-09-14T05:58:25.531Z,-15262.09
2022-09-14T06:03:30.302Z,-15262.09
2022-09-14T06:08:34.203Z,-15262.09
2022-09-14T06:13:37.882Z,-15262.09
2022-09-14T06:18:44.274Z,-15262.09
2022-09-14T06:23:49.237Z,-15262.09
2022-09-14T06:28:53.528Z,-15262.09
2022-09-14T06:33:58.368Z,-15262.09
2022-09-14T06:39:01.896Z,-15262.09
2022-09-14T06:44:05.634Z,-15262.09
2022-09-14T06:49:13.886Z,-15262.09
2022-09-14T06:54:18.973Z,-15262.09
2022-09-14T06:59:22.418Z,-15262.09
2022-09-14T07:04:27.360Z,-15262.09
2022-09-14T07:09:31.771Z,-15262.09
2022-09-14T07:14:36.674Z,-15262.09
2022-09-14T07:19:41.800Z,-15262.09
2022-09-14T07:24:45.314Z,-15262.09
2022-09-14T07:29:49.122Z,-15262.09
2022-09-14T07:34:54.150Z,-15262.09
2022-09-14T07:39:58.283Z,-15262.09
2022-09-14T07:45:01.866Z,-15262.09
2022-09-14T07:50:07.567Z,-15262.09
2022-09-14T07:55:12.083Z,-15262.09
2022-09-14T08:00:16.950Z,-15262.09
2022-09-14T08:05:22.306Z,-15262.09
2022-09-14T08:10:27.309Z,-15262.09
2022-09-14T08:15:31.910Z,-15262.09
2022-09-14T08:20:36.864Z,-15262.09
2022-09-14T08:25:40.257Z,-15262.09
2022-09-14T08:30:43.768Z,-15262.09
2022-09-14T08:36:03.672Z,-15262.09
2022-09-14T08:41:13.530Z,-15262.09
2022-09-14T08:46:27.935Z,-15262.09
2022-09-14T08:51:32.776Z,-15262.09
2022-09-14T08:56:42.504Z,-15262.09
2022-09-14T09:01:55.238Z,-15262.09
2022-09-14T09:07:06.679Z,-15262.09
2022-09-14T09:12:14.944Z,-15262.09
2022-09-14T09:17:23.240Z,-15262.09
2022-09-14T09:22:32.642Z,-15262.09
2022-09-14T09:27:36.145Z,-15262.09
2022-09-14T09:32:41.063Z,-15262.09
2022-09-14T09:38:14.421Z,-15262.09
2022-09-14T09:43:33.605Z,-15262.09
2022-09-14T09:48:45.051Z,-15262.09
2022-09-14T09:53:53.736Z,-15262.09
2022-09-14T09:58:57.328Z,-15262.09
2022-09-14T10:04:04.528Z,-15262.09
2022-09-14T10:09:15.994Z,-15262.09
2022-09-14T10:14:27.350Z,-15262.09
2022-09-14T10:19:31.393Z,-15262.09
2022-09-14T10:24:38.552Z,-15262.09
2022-09-14T10:29:44.081Z,-15262.09
2022-09-14T10:34:47.682Z,-15262.09
2022-09-14T10:40:00.509Z,-15262.09
2022-09-14T10:45:16.374Z,-15262.09
2022-09-14T10:50:31.680Z,-15262.09
2022-09-14T10:55:44.925Z,-15262.09
2022-09-14T11:01:00.619Z,-15262.09
2022-09-14T11:06:13.074Z,-15262.09
2022-09-14T11:11:37.176Z,-15262.09
2022-09-14T11:17:17.439Z,-15262.09
2022-09-14T11:22:30.079Z,-15262.09
2022-09-14T11:27:40.680Z,-15262.09
2022-09-14T11:32:48.385Z,-15262.09
2022-09-14T11:37:57.585Z,-15262.09
2022-09-14T11:43:11.201Z,-15262.09
2022-09-14T11:48:41.762Z,-15262.09
2022-09-14T11:53:46.421Z,-15262.09
2022-09-14T11:58:52.015Z,-15262.09
2022-09-14T12:04:07.268Z,-15262.09
2022-09-14T12:09:43.758Z,-15262.09
2022-09-14T12:14:49.086Z,-15262.09
2022-09-14T12:19:55.657Z,-15262.09
2022-09-14T12:25:01.916Z,-15262.09
2022-09-14T12:30:40.514Z,-15262.09
2022-09-14T12:35:47.747Z,-15262.09
2022-09-14T12:40:51.584Z,-15262.09
2022-09-14T12:46:03.212Z,-15262.09
2022-09-14T12:51:07.116Z,-15262.09
2022-09-14T12:56:19.996Z,-15262.09
2022-09-14T13:01:50.784Z,-15262.09
2022-09-14T13:06:56.732Z,-15262.09
2022-09-14T13:12:04.624Z,-15262.09
2022-09-14T13:17:14.858Z,-15262.09
2022-09-14T13:22:20.147Z,-15262.09
2022-09-14T13:27:26.474Z,-15262.09
2022-09-14T13:32:32.384Z,-15262.09
2022-09-14T13:37:39.511Z,-15262.09
2022-09-14T13:42:43.178Z,-15262.09
2022-09-14T13:47:48.242Z,-15262.09
2022-09-14T13:53:07.553Z,-15262.09
2022-09-14T13:58:20.998Z,-15262.09
2022-09-14T14:03:34.373Z,-15262.09
2022-09-14T14:08:39.382Z,-15262.09
2022-09-14T14:13:42.888Z,-15262.09
2022-09-14T14:18:53.834Z,-15262.09
2022-09-14T14:24:19.805Z,-15262.09
2022-09-14T14:29:23.805Z,-15262.09
2022-09-14T14:34:31.268Z,-15262.09
2022-09-14T14:39:34.867Z,-15262.09
2022-09-14T14:44:38.812Z,-15262.09
2022-09-14T14:49:43.701Z,-15262.09
2022-09-14T14:54:47.287Z,-15262.09
2022-09-14T14:59:52.917Z,-15262.09
2022-09-14T15:04:57.832Z,-15262.09
2022-09-14T15:10:01.367Z,-15262.09
2022-09-14T15:15:05.488Z,-15262.09
2022-09-14T15:20:11.572Z,-15262.09
2022-09-14T15:25:17.272Z,-15262.09
2022-09-14T15:30:20.920Z,-15262.09
2022-09-14T15:35:25.936Z,-15262.09
2022-09-14T15:40:29.539Z,-15262.09
2022-09-14T15:45:34.277Z,-15262.09
2022-09-14T15:50:42.134Z,-15262.09
2022-09-14T15:55:46.526Z,-15262.09
2022-09-14T16:00:50.363Z,-15262.09
2022-09-14T16:05:55.251Z,-15262.09
2022-09-14T16:10:59.427Z,-15262.09
2022-09-14T16:16:07.607Z,-15262.09
2022-09-14T16:21:15.968Z,-15262.09
2022-09-14T16:26:22.016Z,-15262.09
2022-09-14T16:31:27.590Z,-15262.09
2022-09-14T16:36:34.269Z,-15262.09
2022-09-14T16:41:40.560Z,-15262.09
2022-09-14T16:46:44.484Z,-15262.09
2022-09-14T16:51:49.346Z,-15262.09
2022-09-14T16:56:56.038Z,-15262.09
2022-09-14T17:01:59.849Z,-15262.09
2022-09-14T17:07:05.052Z,-15262.09
2022-09-14T17:12:08.897Z,-15262.09
2022-09-14T17:17:12.413Z,-15262.09
2022-09-14T17:22:17.317Z,-15262.09
2022-09-14T17:27:20.852Z,-15262.09
2022-09-14T17:32:24.532Z,-15262.09
2022-09-14T17:37:29.748Z,-15262.09
2022-09-14T17:42:33.316Z,-15262.09
2022-09-14T17:47:37.282Z,-15262.09
2022-09-14T17:52:42.126Z,-15262.09
2022-09-14T17:57:46.021Z,-15262.09
2022-09-14T18:02:52.236Z,-15262.09
2022-09-14T18:07:57.197Z,-15262.09
2022-09-14T18:13:00.754Z,-15262.09
2022-09-14T18:18:04.230Z,-15262.09
2022-09-14T18:23:09.153Z,-15262.09
2022-09-14T18:28:12.702Z,-15262.09
2022-09-14T18:33:16.769Z,-15262.09
2022-09-14T18:38:22.078Z,-15262.09
2022-09-14T18:43:25.709Z,-15262.09
2022-09-14T18:48:29.263Z,-15262.09
2022-09-14T18:53:34.738Z,-15262.09
2022-09-14T18:58:40.722Z,-15262.09
2022-09-14T19:03:45.013Z,-15262.09
2022-09-14T19:08:50.587Z,-15262.09
2022-09-14T19:13:57.131Z,-15262.09
2022-09-14T19:19:00.844Z,-15262.09
2022-09-14T19:24:11.317Z,-15262.09
2022-09-14T19:29:16.207Z,-15262.09
2022-09-14T19:34:21.334Z,-15262.09
2022-09-14T19:39:27.041Z,-15262.09
2022-09-14T19:44:30.980Z,-15262.09
2022-09-14T19:49:34.534Z,-15262.09
2022-09-14T19:54:39.618Z,-15262.09
2022-09-14T19:59:43.212Z,-15262.09
2022-09-14T20:04:46.781Z,-15262.09
2022-09-14T20:09:51.703Z,-15262.09
2022-09-14T20:14:55.456Z,-15262.09
2022-09-14T20:19:59.056Z,-15262.09
2022-09-14T20:25:04.723Z,-15262.09
2022-09-14T20:30:09.824Z,-15262.09
2022-09-14T20:35:13.474Z,-15262.09
2022-09-14T20:40:18.569Z,-15262.09
2022-09-14T20:45:22.256Z,-15262.09
2022-09-14T20:50:25.850Z,-15262.09
2022-09-14T20:55:34.087Z,-15262.09
2022-09-14T21:00:37.854Z,-15262.09
2022-09-14T21:05:41.331Z,-15262.09
2022-09-14T21:10:46.704Z,-15262.09
2022-09-14T21:15:50.329Z,-15262.09
2022-09-14T21:20:53.858Z,-15262.09
2022-09-14T21:25:58.743Z,-15262.09
2022-09-14T21:31:07.521Z,-15262.09
2022-09-14T21:36:13.052Z,-15262.09
2022-09-14T21:41:18.880Z,-15262.09
2022-09-14T21:46:23.164Z,-15262.09
2022-09-14T21:51:29.088Z,-15262.09
2022-09-14T21:56:36.792Z,-15262.09
2022-09-14T22:01:40.412Z,-15262.09
2022-09-14T22:06:45.672Z,-15262.09
2022-09-14T22:11:50.626Z,-15262.09
2022-09-14T22:16:54.790Z,-15262.09
2022-09-14T22:21:59.289Z,-15262.09
2022-09-14T22:27:04.418Z,-15262.09
2022-09-14T22:32:11.194Z,-15262.09
2022-09-14T22:37:14.693Z,-15262.09
2022-09-14T22:42:19.721Z,-15262.09
2022-09-14T22:47:23.455Z,-15262.09
2022-09-14T22:52:26.948Z,-15262.09
2022-09-14T22:57:31.802Z,-15262.09
2022-09-14T23:02:35.316Z,-15262.09
2022-09-14T23:07:38.787Z,-15262.09
2022-09-14T23:12:43.737Z,-15262.09
2022-09-14T23:17:51.906Z,-15262.09
2022-09-14T23:22:55.729Z,-15262.09
2022-09-14T23:28:00.791Z,-15262.09
2022-09-14T23:33:04.847Z,-15262.09
2022-09-14T23:38:08.403Z,-15262.09
2022-09-14T23:43:13.640Z,-15262.09
2022-09-14T23:48:17.180Z,-15262.09
2022-09-14T23:53:20.624Z,-15262.09
2022-09-14T23:58:25.816Z,-15262.09
